Time;durP1;ratioP1;P1;durP2;ratioP2;P2;SDS_P1;SDS_P2;PMS_P1;PMS_P2;Temp;Humidity;BMP_temperature;BMP_pressure;BME280_temperature;BME280_humidity;BME280_pressure;Samples;Min_cycle;Max_cycle;Signal;HPM_P1;HPM_P2
2022/10/25 00:00:44;;;;;;;30.95;16.95;;;13.00;99.90;;;;;;4997404;28;20141;-43
2022/10/25 00:03:11;;;;;;;30.85;16.13;;;13.00;99.90;;;;;;5015650;28;20132;-43
2022/10/25 00:05:39;;;;;;;31.13;17.10;;;13.00;99.90;;;;;;5030877;28;20092;-42
2022/10/25 00:08:07;;;;;;;33.45;16.80;;;13.00;99.90;;;;;;5019131;28;20462;-44
2022/10/25 00:10:34;;;;;;;28.50;16.55;;;13.00;99.90;;;;;;5002336;28;20092;-45
2022/10/25 00:13:01;;;;;;;32.15;17.27;;;13.00;99.90;;;;;;5002015;28;20073;-44
2022/10/25 00:15:28;;;;;;;26.85;17.20;;;13.00;99.90;;;;;;4993696;28;20053;-43
2022/10/25 00:17:55;;;;;;;35.13;18.27;;;12.90;99.90;;;;;;5003136;28;20054;-44
2022/10/25 00:20:21;;;;;;;30.63;17.45;;;12.90;99.90;;;;;;5001943;28;20433;-44
2022/10/25 00:22:48;;;;;;;33.67;17.98;;;12.90;99.90;;;;;;5021350;28;20128;-43
2022/10/25 00:25:16;;;;;;;31.38;17.83;;;12.90;99.90;;;;;;5003311;28;20104;-44
2022/10/25 00:27:43;;;;;;;30.25;18.40;;;12.90;99.90;;;;;;5017824;28;20096;-44
2022/10/25 00:30:11;;;;;;;29.67;17.23;;;12.90;99.90;;;;;;5008649;28;20108;-43
2022/10/25 00:32:38;;;;;;;24.55;15.77;;;12.90;99.90;;;;;;5005690;28;20081;-44
2022/10/25 00:35:06;;;;;;;34.92;17.17;;;12.90;99.90;;;;;;5022879;28;20096;-44
2022/10/25 00:37:32;;;;;;;25.52;15.90;;;12.90;99.90;;;;;;5010191;28;20049;-44
2022/10/25 00:39:59;;;;;;;26.70;15.45;;;12.90;99.90;;;;;;5018880;28;20527;-42
2022/10/25 00:42:27;;;;;;;31.60;17.20;;;12.90;99.90;;;;;;4995699;28;20049;-44
2022/10/25 00:44:55;;;;;;;29.60;15.98;;;12.90;99.90;;;;;;5021074;28;20145;-43
2022/10/25 00:47:41;;;;;;;26.05;15.55;;;12.90;99.90;;;;;;5014599;28;20092;-44
2022/10/25 00:50:14;;;;;;;24.77;15.50;;;12.90;99.90;;;;;;5024028;28;20512;-42
2022/10/25 00:52:41;;;;;;;28.05;14.98;;;12.90;99.90;;;;;;5017129;28;20121;-44
2022/10/25 00:55:08;;;;;;;29.17;15.27;;;12.90;99.90;;;;;;5017793;28;20085;-43
2022/10/25 00:57:39;;;;;;;25.65;13.63;;;12.90;99.90;;;;;;5002977;28;20042;-44
2022/10/25 01:00:08;;;;;;;27.02;14.80;;;12.90;99.90;;;;;;4996403;28;20418;-45
2022/10/25 01:02:35;;;;;;;27.60;14.23;;;12.90;99.90;;;;;;5002978;28;20493;-43
2022/10/25 01:05:02;;;;;;;24.92;14.23;;;12.90;99.90;;;;;;5013535;28;20092;-44
2022/10/25 01:07:28;;;;;;;29.38;14.35;;;13.00;99.90;;;;;;5023211;28;20465;-44
2022/10/25 01:09:55;;;;;;;23.23;13.38;;;13.00;99.90;;;;;;4995270;28;20050;-43
2022/10/25 01:12:22;;;;;;;26.42;13.82;;;13.00;99.90;;;;;;4983946;28;20128;-43
2022/10/25 01:14:50;;;;;;;26.98;14.75;;;13.00;99.90;;;;;;4994710;28;20085;-44
2022/10/25 01:17:19;;;;;;;27.27;13.88;;;13.00;99.90;;;;;;4996355;28;20140;-42
2022/10/25 01:20:21;;;;;;;25.63;13.52;;;13.00;99.90;;;;;;4993924;28;20050;-47
2022/10/25 01:22:50;;;;;;;27.70;13.23;;;13.00;99.90;;;;;;5005582;28;20104;-44
2022/10/25 01:25:35;;;;;;;22.33;13.20;;;12.90;99.90;;;;;;5003643;28;20081;-45
2022/10/25 01:28:05;;;;;;;23.80;13.88;;;13.00;99.90;;;;;;5005518;28;20050;-43
2022/10/25 01:30:58;;;;;;;24.17;13.10;;;13.00;99.90;;;;;;5014758;28;20081;-45
2022/10/25 01:33:27;;;;;;;24.17;12.98;;;13.00;99.90;;;;;;5031353;28;20107;-44
2022/10/25 01:35:57;;;;;;;24.58;13.35;;;13.00;99.90;;;;;;5032847;28;20081;-42
2022/10/25 01:38:33;;;;;;;21.85;13.18;;;13.00;99.90;;;;;;5031820;28;20076;-43
2022/10/25 01:41:06;;;;;;;27.67;12.80;;;13.00;99.90;;;;;;5014050;28;20053;-44
2022/10/25 01:43:37;;;;;;;25.27;12.85;;;13.00;99.90;;;;;;5028176;28;20103;-44
2022/10/25 01:46:10;;;;;;;28.92;13.82;;;13.10;99.90;;;;;;5012932;28;20125;-45
2022/10/25 01:48:39;;;;;;;20.60;12.45;;;13.10;99.90;;;;;;5032244;28;20099;-43
2022/10/25 01:51:09;;;;;;;25.67;13.13;;;13.10;99.90;;;;;;5026959;28;20083;-43
2022/10/25 01:53:44;;;;;;;23.40;11.23;;;13.10;99.90;;;;;;5026849;28;20046;-43
2022/10/25 01:56:11;;;;;;;27.33;12.30;;;13.10;99.90;;;;;;5032093;28;20053;-45
2022/10/25 01:58:40;;;;;;;25.20;12.95;;;13.20;99.90;;;;;;5010071;28;20042;-46
2022/10/25 02:01:12;;;;;;;26.55;11.77;;;13.10;99.90;;;;;;5024688;28;20195;-44
2022/10/25 02:03:41;;;;;;;24.95;11.77;;;13.10;99.90;;;;;;5011802;28;20129;-43
2022/10/25 02:06:15;;;;;;;21.15;11.45;;;13.20;99.90;;;;;;5030956;28;20092;-43
2022/10/25 02:08:43;;;;;;;29.60;13.00;;;13.20;99.90;;;;;;5029901;28;20228;-42
2022/10/25 02:11:16;;;;;;;23.95;12.15;;;13.20;99.90;;;;;;5015334;28;20049;-42
2022/10/25 02:13:47;;;;;;;23.00;11.73;;;13.30;99.90;;;;;;5017911;28;20104;-43
2022/10/25 02:16:17;;;;;;;23.52;12.10;;;13.20;99.90;;;;;;5011782;28;20049;-44
2022/10/25 02:18:45;;;;;;;21.08;11.15;;;13.20;99.90;;;;;;5024109;28;20132;-44
2022/10/25 02:21:12;;;;;;;23.50;11.82;;;13.30;99.90;;;;;;5026167;28;20128;-44
2022/10/25 02:23:39;;;;;;;23.70;12.00;;;13.20;99.90;;;;;;5031539;28;20107;-43
2022/10/25 02:26:07;;;;;;;24.17;12.25;;;13.30;99.90;;;;;;5014672;28;20502;-42
2022/10/25 02:28:35;;;;;;;27.65;12.93;;;13.20;99.90;;;;;;4988702;28;20097;-41
2022/10/25 02:31:01;;;;;;;24.85;11.88;;;13.20;99.90;;;;;;4992773;28;20093;-42
2022/10/25 02:33:30;;;;;;;23.73;11.60;;;13.20;99.90;;;;;;5012601;28;20049;-41
2022/10/25 02:36:12;;;;;;;23.92;13.43;;;13.20;99.90;;;;;;5011954;28;20137;-42
2022/10/25 02:38:39;;;;;;;31.92;14.32;;;13.30;99.90;;;;;;5011622;28;20077;-43
2022/10/25 02:41:06;;;;;;;25.08;13.50;;;13.30;99.90;;;;;;4995142;28;20046;-42
2022/10/25 02:43:33;;;;;;;27.48;13.20;;;13.30;99.90;;;;;;5026444;28;20053;-44
2022/10/25 02:45:59;;;;;;;26.35;12.93;;;13.30;99.90;;;;;;5012930;28;20081;-45
2022/10/25 02:48:26;;;;;;;23.75;13.15;;;13.30;99.90;;;;;;5011143;28;20073;-43
2022/10/25 02:50:54;;;;;;;28.00;12.65;;;13.30;99.90;;;;;;4992692;28;20078;-44
2022/10/25 02:53:21;;;;;;;23.95;13.32;;;13.30;99.90;;;;;;4994185;28;20096;-45
2022/10/25 02:55:48;;;;;;;26.10;13.48;;;13.30;99.90;;;;;;5011018;28;20108;-44
2022/10/25 02:58:15;;;;;;;26.30;12.93;;;13.30;99.90;;;;;;5009209;28;20085;-43
2022/10/25 03:00:42;;;;;;;28.73;13.60;;;13.30;99.90;;;;;;4991117;28;20147;-43
2022/10/25 03:03:08;;;;;;;27.70;12.50;;;13.30;99.90;;;;;;5011410;28;20111;-45
2022/10/25 03:05:35;;;;;;;25.63;13.15;;;13.30;99.90;;;;;;5014507;28;20112;-44
2022/10/25 03:08:03;;;;;;;25.35;13.05;;;13.30;99.90;;;;;;5006704;28;20124;-46
2022/10/25 03:10:30;;;;;;;29.58;12.90;;;13.40;99.90;;;;;;5005078;28;20104;-45
2022/10/25 03:12:57;;;;;;;28.10;13.25;;;13.30;99.90;;;;;;5026210;28;20042;-44
2022/10/25 03:15:24;;;;;;;28.58;12.25;;;13.40;99.90;;;;;;4997780;28;20077;-43
2022/10/25 03:17:50;;;;;;;31.98;13.70;;;13.40;99.90;;;;;;5014734;28;20077;-42
2022/10/25 03:20:17;;;;;;;24.38;12.02;;;13.40;99.90;;;;;;5008365;28;20125;-45
2022/10/25 03:22:44;;;;;;;28.05;13.20;;;13.40;99.90;;;;;;5003691;28;20062;-44
2022/10/25 03:25:12;;;;;;;24.30;13.80;;;13.40;99.90;;;;;;5014333;28;20094;-45
2022/10/25 03:27:39;;;;;;;22.75;12.52;;;13.40;99.90;;;;;;5013081;28;20085;-48
2022/10/25 03:30:07;;;;;;;29.85;12.68;;;13.40;99.90;;;;;;5014603;28;20511;-42
2022/10/25 03:32:33;;;;;;;30.50;12.48;;;13.40;99.90;;;;;;5007961;28;20050;-45
2022/10/25 03:35:00;;;;;;;20.48;11.38;;;13.40;99.90;;;;;;5012690;28;20122;-44
2022/10/25 03:37:27;;;;;;;23.23;11.80;;;13.40;99.90;;;;;;4994753;28;20057;-44
2022/10/25 03:39:54;;;;;;;30.83;13.30;;;13.40;99.90;;;;;;5013731;28;20507;-46
2022/10/25 03:42:22;;;;;;;27.15;12.45;;;13.40;99.90;;;;;;4996949;28;20108;-44
2022/10/25 03:44:49;;;;;;;23.92;11.50;;;13.40;99.90;;;;;;4994535;28;20084;-45
2022/10/25 03:47:15;;;;;;;28.85;13.85;;;13.40;99.90;;;;;;4994150;28;20090;-44
2022/10/25 03:49:42;;;;;;;28.20;12.50;;;13.30;99.90;;;;;;5009411;28;20133;-44
2022/10/25 03:52:09;;;;;;;30.13;13.45;;;13.30;99.90;;;;;;5014588;28;20545;-44
2022/10/25 03:54:36;;;;;;;27.10;13.30;;;13.30;99.90;;;;;;5013548;28;20054;-45
2022/10/25 03:57:03;;;;;;;27.38;13.88;;;13.30;99.90;;;;;;5014624;28;20053;-43
2022/10/25 03:59:31;;;;;;;26.65;13.40;;;13.30;99.90;;;;;;5013430;28;20075;-44
2022/10/25 04:01:58;;;;;;;29.33;13.85;;;13.30;99.90;;;;;;5012919;28;20050;-44
2022/10/25 04:04:25;;;;;;;29.67;13.68;;;13.30;99.90;;;;;;5014111;28;20061;-44
2022/10/25 04:06:52;;;;;;;28.05;13.13;;;13.30;99.90;;;;;;4997045;28;20096;-45
2022/10/25 04:09:18;;;;;;;24.50;12.80;;;13.30;99.90;;;;;;5010710;28;20108;-43
2022/10/25 04:11:45;;;;;;;26.05;13.35;;;13.30;99.90;;;;;;4992249;28;20566;-43
2022/10/25 04:14:12;;;;;;;26.63;13.75;;;13.30;99.90;;;;;;4976748;28;20129;-45
2022/10/25 04:16:40;;;;;;;29.02;13.05;;;13.30;99.90;;;;;;5011340;28;20141;-43
2022/10/25 04:19:07;;;;;;;36.88;13.90;;;13.30;99.90;;;;;;4986770;28;20140;-46
2022/10/25 04:21:34;;;;;;;30.50;15.35;;;13.30;99.90;;;;;;4992236;28;20462;-46
2022/10/25 04:24:00;;;;;;;30.58;14.25;;;13.30;99.90;;;;;;4982740;28;20082;-47
2022/10/25 04:26:28;;;;;;;33.05;14.48;;;13.40;99.90;;;;;;5010483;28;20076;-45
2022/10/25 04:28:55;;;;;;;31.55;13.73;;;13.40;99.90;;;;;;4986315;28;20104;-44
2022/10/25 04:31:22;;;;;;;27.63;13.25;;;13.40;99.90;;;;;;4992457;28;20053;-44
2022/10/25 04:33:50;;;;;;;27.65;12.63;;;13.40;99.90;;;;;;4995783;28;20077;-45
2022/10/25 04:36:17;;;;;;;31.42;13.48;;;13.40;99.90;;;;;;5011782;28;20053;-42
2022/10/25 04:38:44;;;;;;;30.63;12.60;;;13.40;99.90;;;;;;4995190;28;20121;-45
2022/10/25 04:41:11;;;;;;;29.23;11.85;;;13.40;99.90;;;;;;5013988;28;20470;-44
2022/10/25 04:43:37;;;;;;;29.23;13.27;;;13.40;99.90;;;;;;5013031;28;20058;-47
2022/10/25 04:46:04;;;;;;;35.47;13.18;;;13.40;99.90;;;;;;5007417;28;20149;-43
2022/10/25 04:48:31;;;;;;;32.95;12.68;;;13.40;99.90;;;;;;5013657;28;20085;-45
2022/10/25 04:51:00;;;;;;;25.10;12.50;;;13.40;99.90;;;;;;4994880;28;20128;-44
2022/10/25 04:53:27;;;;;;;35.13;14.85;;;13.40;99.90;;;;;;5012634;28;20088;-46
2022/10/25 04:55:57;;;;;;;30.85;12.98;;;13.40;99.90;;;;;;4993190;28;20145;-44
2022/10/25 04:58:24;;;;;;;27.85;12.80;;;13.40;99.90;;;;;;4985808;28;20084;-44
2022/10/25 05:00:51;;;;;;;31.92;12.20;;;13.40;99.90;;;;;;5008821;28;20104;-44
2022/10/25 05:03:17;;;;;;;31.05;12.00;;;13.40;99.90;;;;;;5008020;28;20064;-46
2022/10/25 05:05:44;;;;;;;39.70;13.07;;;13.40;99.90;;;;;;4991491;28;20156;-44
2022/10/25 05:08:12;;;;;;;34.28;13.70;;;13.40;99.90;;;;;;4975596;28;20054;-47
2022/10/25 05:10:39;;;;;;;28.23;11.85;;;13.40;99.90;;;;;;4993917;28;20135;-44
2022/10/25 05:13:06;;;;;;;31.48;12.30;;;13.30;99.90;;;;;;5010574;28;20096;-45
2022/10/25 05:15:33;;;;;;;26.08;10.82;;;13.30;99.90;;;;;;5010830;28;20089;-45
2022/10/25 05:17:59;;;;;;;22.98;10.10;;;13.30;99.90;;;;;;5011707;28;20089;-45
2022/10/25 05:20:26;;;;;;;24.48;10.77;;;13.30;99.90;;;;;;4989196;28;20549;-44
2022/10/25 05:22:53;;;;;;;23.27;10.52;;;13.20;99.90;;;;;;4998316;28;20041;-47
2022/10/25 05:25:21;;;;;;;31.52;10.32;;;13.20;99.90;;;;;;4994527;28;20049;-45
2022/10/25 05:27:48;;;;;;;28.00;10.90;;;13.20;99.90;;;;;;5002113;28;20084;-47
2022/10/25 05:30:15;;;;;;;23.02;9.15;;;13.10;99.90;;;;;;5006769;28;20387;-45
2022/10/25 05:32:42;;;;;;;28.88;10.32;;;13.10;99.90;;;;;;4990924;28;20141;-47
2022/10/25 05:35:09;;;;;;;25.38;10.23;;;13.10;99.90;;;;;;4980816;28;20049;-48
2022/10/25 05:37:36;;;;;;;24.52;9.38;;;13.00;99.90;;;;;;4999082;28;20109;-47
2022/10/25 05:40:03;;;;;;;21.38;9.10;;;13.00;99.90;;;;;;4993843;28;20503;-46
2022/10/25 05:42:31;;;;;;;31.85;9.05;;;13.00;99.90;;;;;;4996068;28;20089;-42
2022/10/25 05:44:58;;;;;;;22.58;8.55;;;13.00;99.90;;;;;;4990002;28;20089;-43
2022/10/25 05:47:24;;;;;;;23.42;9.00;;;13.00;99.90;;;;;;5002257;28;20081;-44
2022/10/25 05:49:51;;;;;;;23.90;7.82;;;13.00;99.90;;;;;;5002074;28;20461;-44
2022/10/25 05:52:18;;;;;;;24.23;8.68;;;13.00;99.90;;;;;;4974550;28;20157;-44
2022/10/25 05:54:45;;;;;;;22.90;8.23;;;13.00;99.90;;;;;;5001442;28;20081;-44
2022/10/25 05:57:11;;;;;;;24.88;8.27;;;13.00;99.90;;;;;;4994693;28;20145;-46
2022/10/25 05:59:39;;;;;;;20.95;8.65;;;13.00;99.90;;;;;;4984118;28;20178;-46
2022/10/25 06:02:06;;;;;;;24.73;8.35;;;13.00;99.90;;;;;;4984965;28;20140;-44
2022/10/25 06:04:33;;;;;;;23.02;8.55;;;13.00;99.90;;;;;;4996922;28;20125;-46
2022/10/25 06:07:00;;;;;;;25.08;9.05;;;13.00;99.90;;;;;;4977843;28;20082;-48
2022/10/25 06:09:26;;;;;;;30.00;9.15;;;12.90;99.90;;;;;;4991890;28;20050;-45
2022/10/25 06:11:53;;;;;;;23.75;8.60;;;12.90;99.90;;;;;;4979598;28;20132;-45
2022/10/25 06:14:20;;;;;;;23.85;9.43;;;12.90;99.90;;;;;;4984042;28;20137;-45
2022/10/25 06:16:48;;;;;;;30.33;9.95;;;12.90;99.90;;;;;;4979558;28;20111;-44
2022/10/25 06:19:15;;;;;;;24.27;9.63;;;12.90;99.90;;;;;;4993233;28;20490;-48
2022/10/25 06:21:42;;;;;;;33.22;10.73;;;12.90;99.90;;;;;;5003107;28;20086;-46
2022/10/25 06:24:09;;;;;;;30.10;9.63;;;12.90;99.90;;;;;;5003972;28;20129;-43
2022/10/25 06:26:35;;;;;;;33.75;9.35;;;12.90;99.90;;;;;;4992272;28;20078;-47
2022/10/25 06:29:03;;;;;;;33.25;9.98;;;12.90;99.90;;;;;;4991341;28;20196;-45
2022/10/25 06:31:30;;;;;;;28.35;9.55;;;12.90;99.90;;;;;;4986768;28;20050;-47
2022/10/25 06:33:58;;;;;;;35.17;10.18;;;12.90;99.90;;;;;;5008619;28;20081;-46
2022/10/25 06:36:26;;;;;;;26.65;8.57;;;12.90;99.90;;;;;;4996464;28;20089;-45
2022/10/25 06:38:52;;;;;;;32.80;9.95;;;12.90;99.90;;;;;;4987526;28;20039;-46
2022/10/25 06:41:20;;;;;;;35.47;10.48;;;12.90;99.90;;;;;;4993039;28;20081;-47
2022/10/25 06:43:47;;;;;;;28.52;10.45;;;12.90;99.90;;;;;;4994273;28;20139;-46
2022/10/25 06:46:17;;;;;;;36.88;10.88;;;12.90;99.90;;;;;;4990067;28;20086;-45
2022/10/25 06:48:44;;;;;;;34.10;10.48;;;12.90;99.90;;;;;;5013527;28;20080;-48
2022/10/25 06:51:12;;;;;;;32.38;10.93;;;12.90;99.90;;;;;;4993296;28;20085;-45
2022/10/25 06:53:40;;;;;;;31.80;11.30;;;12.90;99.90;;;;;;5002180;28;20469;-44
2022/10/25 06:56:08;;;;;;;28.60;10.45;;;12.90;99.90;;;;;;5015401;28;20053;-48
2022/10/25 06:58:35;;;;;;;32.72;10.02;;;12.90;99.90;;;;;;4986363;28;20097;-47
2022/10/25 07:01:02;;;;;;;38.58;10.93;;;12.90;99.90;;;;;;4994320;28;20137;-47
2022/10/25 07:03:33;;;;;;;27.90;9.23;;;12.90;99.90;;;;;;4997607;28;20050;-46
2022/10/25 07:06:00;;;;;;;34.38;10.55;;;12.90;99.90;;;;;;4996865;28;20371;-46
2022/10/25 07:08:29;;;;;;;27.58;9.68;;;12.90;99.90;;;;;;5011955;28;20058;-47
2022/10/25 07:10:56;;;;;;;31.55;10.55;;;12.90;99.90;;;;;;5013845;28;20100;-47
2022/10/25 07:13:23;;;;;;;31.52;10.63;;;12.90;99.90;;;;;;4997096;28;20501;-46
2022/10/25 07:15:49;;;;;;;28.05;10.10;;;13.00;99.90;;;;;;5012932;28;20120;-44
2022/10/25 07:18:16;;;;;;;33.80;12.73;;;13.00;99.90;;;;;;4990230;28;20546;-45
2022/10/25 07:20:47;;;;;;;34.90;10.73;;;13.00;99.90;;;;;;5010651;28;20125;-48
2022/10/25 07:23:14;;;;;;;30.02;10.98;;;13.00;99.90;;;;;;4997863;28;20054;-46
2022/10/25 07:25:42;;;;;;;35.45;11.98;;;13.10;99.90;;;;;;4998055;28;20383;-45
2022/10/25 07:28:11;;;;;;;34.75;12.38;;;13.10;99.90;;;;;;5020628;28;20049;-46
2022/10/25 07:30:37;;;;;;;38.90;14.55;;;13.20;99.90;;;;;;5034615;28;20049;-47
2022/10/25 07:33:04;;;;;;;40.22;13.57;;;13.20;99.90;;;;;;5016058;28;20057;-44
2022/10/25 07:35:32;;;;;;;36.72;13.90;;;13.20;99.90;;;;;;5033029;28;20460;-43
2022/10/25 07:37:59;;;;;;;42.92;13.23;;;13.20;99.90;;;;;;5016105;28;20558;-43
2022/10/25 07:40:25;;;;;;;30.35;12.60;;;13.30;99.90;;;;;;5017627;28;20045;-46
2022/10/25 07:42:54;;;;;;;34.67;12.60;;;13.30;99.90;;;;;;5017174;28;20084;-45
2022/10/25 07:45:20;;;;;;;29.98;12.20;;;13.40;99.90;;;;;;5034354;28;20397;-44
2022/10/25 07:47:50;;;;;;;36.33;12.70;;;13.40;99.90;;;;;;5034303;28;20532;-44
2022/10/25 07:50:18;;;;;;;41.72;12.98;;;13.40;99.90;;;;;;5034015;28;20128;-44
2022/10/25 07:52:45;;;;;;;37.17;13.43;;;13.50;99.90;;;;;;5034604;28;20045;-43
2022/10/25 07:55:11;;;;;;;32.67;13.30;;;13.50;99.90;;;;;;5032762;28;20049;-45
2022/10/25 07:57:38;;;;;;;35.40;13.52;;;13.50;99.90;;;;;;5028868;28;20088;-44
2022/10/25 08:00:08;;;;;;;37.17;13.93;;;13.60;99.90;;;;;;5033014;28;20084;-44
2022/10/25 08:02:35;;;;;;;45.42;14.85;;;13.60;99.90;;;;;;5015775;28;20049;-46
2022/10/25 08:05:02;;;;;;;35.67;14.05;;;13.60;99.90;;;;;;5030499;28;20133;-44
2022/10/25 08:07:28;;;;;;;30.48;12.68;;;13.60;99.90;;;;;;5008935;28;20554;-45
2022/10/25 08:09:55;;;;;;;39.75;14.13;;;13.60;99.90;;;;;;5030828;28;20399;-43
2022/10/25 08:12:22;;;;;;;28.38;14.40;;;13.70;99.90;;;;;;5014420;28;20120;-46
2022/10/25 08:14:49;;;;;;;35.83;13.68;;;13.80;99.90;;;;;;5021414;28;20616;-46
2022/10/25 08:17:17;;;;;;;37.78;14.48;;;13.80;99.90;;;;;;5020050;28;20512;-48
2022/10/25 08:19:44;;;;;;;44.95;13.82;;;13.90;99.90;;;;;;5031866;28;20073;-44
2022/10/25 08:22:10;;;;;;;37.78;14.23;;;14.00;99.90;;;;;;5031428;28;20175;-46
2022/10/25 08:24:38;;;;;;;30.80;14.13;;;14.00;99.90;;;;;;5032013;28;20124;-45
2022/10/25 08:27:05;;;;;;;34.58;13.73;;;14.10;99.90;;;;;;5005639;28;20050;-41
2022/10/25 08:29:32;;;;;;;31.13;13.38;;;14.20;99.90;;;;;;5005852;28;20401;-47
2022/10/25 08:31:59;;;;;;;34.30;13.27;;;14.20;99.90;;;;;;5020425;28;20108;-43
2022/10/25 08:34:27;;;;;;;47.67;14.48;;;14.20;99.90;;;;;;5014725;28;20049;-46
2022/10/25 08:36:54;;;;;;;30.15;13.23;;;14.20;99.90;;;;;;5031817;28;20084;-47
2022/10/25 08:39:21;;;;;;;33.83;12.82;;;14.20;99.90;;;;;;5032535;28;20557;-44
2022/10/25 08:41:50;;;;;;;32.15;12.80;;;14.10;99.90;;;;;;5031655;28;20141;-46
2022/10/25 08:44:20;;;;;;;28.38;12.00;;;14.10;99.90;;;;;;5013894;28;20448;-47
2022/10/25 08:46:53;;;;;;;28.90;12.32;;;14.20;99.90;;;;;;5013844;28;20086;-46
2022/10/25 08:49:24;;;;;;;30.55;11.98;;;14.20;99.90;;;;;;5013554;28;20112;-45
2022/10/25 08:51:52;;;;;;;32.30;12.13;;;14.20;99.90;;;;;;5032025;28;20122;-45
2022/10/25 08:54:25;;;;;;;31.35;11.80;;;14.30;99.90;;;;;;5007175;28;20493;-45
2022/10/25 08:56:53;;;;;;;26.05;11.50;;;14.40;99.90;;;;;;5011218;28;20124;-45
2022/10/25 08:59:23;;;;;;;36.08;10.63;;;14.40;99.90;;;;;;5000938;28;20061;-46
2022/10/25 09:01:52;;;;;;;22.95;10.25;;;14.50;99.90;;;;;;5012580;28;20093;-46
2022/10/25 09:04:19;;;;;;;25.80;10.13;;;14.60;99.90;;;;;;5013424;28;20135;-47
2022/10/25 09:06:49;;;;;;;30.25;10.57;;;14.60;99.90;;;;;;5030121;28;20041;-43
2022/10/25 09:09:24;;;;;;;23.90;9.13;;;14.70;99.90;;;;;;5028160;28;20054;-45
2022/10/25 09:11:57;;;;;;;20.17;8.48;;;14.70;99.90;;;;;;5038221;28;20103;-43
2022/10/25 09:14:30;;;;;;;19.08;9.30;;;14.70;99.90;;;;;;5032076;28;20077;-45
2022/10/25 09:16:59;;;;;;;24.30;9.48;;;14.70;99.90;;;;;;5004973;28;20122;-45
2022/10/25 09:19:34;;;;;;;27.67;9.25;;;14.80;99.90;;;;;;5028996;28;20136;-44
2022/10/25 09:22:01;;;;;;;26.52;9.25;;;14.80;99.90;;;;;;5031450;28;20088;-47
2022/10/25 09:24:33;;;;;;;30.80;9.82;;;14.80;99.90;;;;;;5029715;28;20397;-44
2022/10/25 09:27:04;;;;;;;24.00;8.35;;;14.90;99.90;;;;;;5028583;28;20185;-46
2022/10/25 09:29:33;;;;;;;20.23;7.53;;;15.00;99.90;;;;;;5030821;28;20049;-42
2022/10/25 09:32:00;;;;;;;21.40;7.75;;;14.90;99.90;;;;;;5012900;28;20093;-46
2022/10/25 09:34:29;;;;;;;22.23;8.70;;;15.00;99.90;;;;;;5012824;28;20084;-44
2022/10/25 09:36:59;;;;;;;21.17;7.95;;;15.00;99.90;;;;;;5007512;28;20829;-45
2022/10/25 09:39:30;;;;;;;23.50;7.95;;;15.00;99.90;;;;;;5029802;28;20095;-43
2022/10/25 09:41:57;;;;;;;25.58;9.25;;;15.00;99.90;;;;;;5004134;28;20045;-47
2022/10/25 09:44:36;;;;;;;24.63;8.10;;;15.00;99.90;;;;;;5030530;28;20553;-44
2022/10/25 09:47:12;;;;;;;22.02;8.73;;;15.10;99.90;;;;;;5023513;28;20060;-44
2022/10/25 09:49:41;;;;;;;16.98;7.60;;;15.10;99.90;;;;;;5026096;28;20053;-46
2022/10/25 09:52:12;;;;;;;21.95;8.10;;;15.20;99.90;;;;;;5011022;28;20107;-43
2022/10/25 09:54:44;;;;;;;19.13;7.35;;;15.20;99.90;;;;;;5023419;28;20131;-47
2022/10/25 09:57:11;;;;;;;23.70;8.07;;;15.30;99.90;;;;;;5026805;28;20481;-45
2022/10/25 09:59:37;;;;;;;15.68;6.78;;;15.30;99.90;;;;;;5030023;28;20061;-47
2022/10/25 10:02:04;;;;;;;23.33;7.53;;;15.30;99.90;;;;;;5011953;28;20073;-42
2022/10/25 10:04:33;;;;;;;19.48;7.30;;;15.30;99.90;;;;;;5027385;28;20568;-44
2022/10/25 10:07:03;;;;;;;18.33;7.07;;;15.30;99.90;;;;;;5029795;28;20076;-47
2022/10/25 10:09:30;;;;;;;18.80;7.78;;;15.30;99.90;;;;;;5020592;28;20057;-45
2022/10/25 10:11:58;;;;;;;36.10;12.05;;;15.40;99.90;;;;;;5018822;28;20054;-44
2022/10/25 10:14:28;;;;;;;28.45;11.10;;;15.50;99.90;;;;;;5011166;28;20360;-47
2022/10/25 10:16:56;;;;;;;23.42;8.63;;;15.60;99.90;;;;;;5010975;28;20132;-43
2022/10/25 10:19:23;;;;;;;24.45;7.10;;;15.60;99.90;;;;;;5021150;28;20125;-42
2022/10/25 10:21:52;;;;;;;19.02;6.28;;;15.70;99.90;;;;;;5019520;28;20116;-45
2022/10/25 10:24:19;;;;;;;16.77;5.68;;;15.80;99.90;;;;;;5030224;28;20157;-42
2022/10/25 10:26:47;;;;;;;19.35;5.88;;;16.00;99.90;;;;;;5034040;28;20051;-44
2022/10/25 10:29:18;;;;;;;20.38;5.97;;;15.90;99.90;;;;;;5034760;28;20060;-43
2022/10/25 10:31:46;;;;;;;17.48;5.50;;;15.90;99.90;;;;;;5034006;28;20057;-42
2022/10/25 10:34:25;;;;;;;17.00;4.93;;;15.90;99.90;;;;;;5032673;28;20087;-45
2022/10/25 10:37:02;;;;;;;17.00;4.97;;;15.80;99.90;;;;;;5034738;28;20049;-42
2022/10/25 10:39:29;;;;;;;22.35;5.22;;;15.80;99.90;;;;;;5033384;28;20433;-44
2022/10/25 10:42:01;;;;;;;17.85;5.78;;;15.80;99.90;;;;;;5033301;28;20056;-45
2022/10/25 10:44:33;;;;;;;16.13;4.97;;;15.90;99.90;;;;;;5014413;28;20057;-41
2022/10/25 10:47:00;;;;;;;12.35;4.85;;;16.00;99.90;;;;;;5034175;28;20060;-44
2022/10/25 10:49:33;;;;;;;15.20;4.97;;;16.20;99.90;;;;;;5015568;28;20058;-42
2022/10/25 10:52:01;;;;;;;17.20;4.82;;;16.30;99.90;;;;;;5032422;28;20085;-42
2022/10/25 10:54:29;;;;;;;14.50;4.30;;;16.30;99.90;;;;;;5027815;28;20292;-42
2022/10/25 10:56:57;;;;;;;14.10;3.70;;;16.40;99.90;;;;;;5032417;28;20468;-43
2022/10/25 10:59:35;;;;;;;17.38;4.50;;;16.50;99.90;;;;;;5015648;28;20132;-41
2022/10/25 11:02:24;;;;;;;13.32;4.30;;;16.50;99.90;;;;;;5012327;28;20049;-41
2022/10/25 11:04:52;;;;;;;15.43;4.15;;;16.50;99.90;;;;;;5030506;28;20053;-43
2022/10/25 11:07:29;;;;;;;15.68;4.55;;;16.30;99.90;;;;;;5010225;28;20056;-45
2022/10/25 11:10:18;;;;;;;16.50;4.35;;;16.30;99.90;;;;;;5020326;28;20046;-45
2022/10/25 11:12:45;;;;;;;15.65;4.50;;;16.30;99.90;;;;;;5025305;28;20496;-42
2022/10/25 11:15:13;;;;;;;18.17;5.75;;;16.20;99.90;;;;;;5032394;28;20049;-44
2022/10/25 11:17:42;;;;;;;15.45;4.30;;;16.20;99.90;;;;;;5015997;28;20045;-42
2022/10/25 11:20:18;;;;;;;21.45;4.45;;;16.20;99.90;;;;;;5033745;28;20063;-42
2022/10/25 11:22:53;;;;;;;13.07;4.93;;;16.20;99.90;;;;;;5008167;28;20129;-41
2022/10/25 11:25:25;;;;;;;10.85;4.22;;;16.30;99.90;;;;;;5028078;28;20533;-42
2022/10/25 11:27:59;;;;;;;17.80;4.50;;;16.30;99.90;;;;;;5032452;28;20042;-41
2022/10/25 11:30:27;;;;;;;16.10;4.85;;;16.40;99.90;;;;;;5014707;28;20511;-43
2022/10/25 11:33:16;;;;;;;27.55;4.93;;;16.50;99.90;;;;;;5014353;28;20053;-42
2022/10/25 11:35:48;;;;;;;17.92;3.88;;;16.50;99.90;;;;;;5024403;28;20041;-42
2022/10/25 11:38:17;;;;;;;16.20;4.82;;;16.50;99.90;;;;;;5029323;28;20068;-43
2022/10/25 11:40:46;;;;;;;16.48;4.00;;;16.60;99.90;;;;;;5027618;28;20049;-43
2022/10/25 11:43:25;;;;;;;19.48;4.82;;;16.70;99.90;;;;;;5031501;28;20143;-44
2022/10/25 11:45:56;;;;;;;13.93;3.88;;;16.70;99.90;;;;;;5014071;28;20542;-43
2022/10/25 11:48:37;;;;;;;15.00;4.40;;;16.80;99.90;;;;;;5015365;28;20144;-41
2022/10/25 11:51:06;;;;;;;12.40;3.80;;;16.90;99.90;;;;;;5010557;28;20085;-41
2022/10/25 11:53:47;;;;;;;16.10;4.13;;;17.10;99.90;;;;;;5031617;28;20081;-43
2022/10/25 11:56:16;;;;;;;16.38;3.50;;;17.20;99.90;;;;;;5030397;28;20124;-47
2022/10/25 11:58:45;;;;;;;11.60;3.70;;;17.30;99.90;;;;;;5007015;28;20132;-43
2022/10/25 12:01:30;;;;;;;16.42;3.80;;;17.30;99.90;;;;;;5031609;28;20049;-44
2022/10/25 12:04:05;;;;;;;12.95;3.47;;;17.30;99.90;;;;;;5027527;28;20434;-43
2022/10/25 12:06:34;;;;;;;15.20;3.83;;;17.30;99.90;;;;;;5011467;28;20562;-44
2022/10/25 12:09:05;;;;;;;11.80;3.30;;;17.20;99.90;;;;;;5029537;28;20124;-41
2022/10/25 12:11:32;;;;;;;8.32;3.65;;;17.20;99.90;;;;;;5028737;28;20077;-42
2022/10/25 12:14:00;;;;;;;9.85;3.00;;;17.20;99.90;;;;;;5012419;28;20485;-43
2022/10/25 12:16:28;;;;;;;11.77;3.65;;;17.20;99.90;;;;;;5023300;28;20129;-42
2022/10/25 12:19:00;;;;;;;11.35;3.70;;;17.30;99.90;;;;;;5030884;28;20049;-44
2022/10/25 12:21:40;;;;;;;9.85;3.95;;;17.30;99.90;;;;;;5031162;28;20081;-42
2022/10/25 12:24:09;;;;;;;9.85;3.58;;;17.20;99.90;;;;;;5013887;28;20504;-43
2022/10/25 12:26:37;;;;;;;12.35;3.20;;;17.10;99.90;;;;;;5013892;28;20116;-44
2022/10/25 12:29:05;;;;;;;10.88;3.50;;;17.20;99.90;;;;;;5008620;28;20136;-42
2022/10/25 12:31:36;;;;;;;16.10;3.70;;;17.20;99.90;;;;;;5029694;28;20129;-43
2022/10/25 12:34:06;;;;;;;9.75;3.00;;;17.30;99.90;;;;;;5014357;28;20132;-44
2022/10/25 12:36:36;;;;;;;14.65;4.20;;;17.40;99.90;;;;;;5031504;28;20132;-42
2022/10/25 12:39:04;;;;;;;10.20;2.88;;;17.60;99.90;;;;;;5032198;28;20053;-44